Sheyenne, North Dakota
Current Conditions -  °F | °C
As of 3:55 PM on Wednesday 26 Nov 2014 (Local Time) from KDVL Reporting Station
Clear Clear  
Wind Chill: -12°   Ceiling: Unl
Heat Index:   Visibility: 10mi
Dew Point: -15°   Wind: 8mph
Humidity: 47%   Direction: 340°NNW
Pressure: 30.42"   Gusts: NA
Location:  47.83°N, 99.12°W
Report Text: KDVL 262155Z AUTO 34007KT 10SM CLR M17/M26 A3042 RMK AO1
Loading
Personal Weather Stations






























Interactive Weather Map New forecast layout! Learn more

10-Day Weather Forecast

Advertisements
Track Severe Weather on mobile